Search for airport 
image banner adimage banner adimage banner ad
image banner ad

4CA5 - Childrens Hospital Of Orange County

Located in Orange, United States

ICAO - 4CA5, IATA -

Data provided by Airmate  

General information

Coordinates: N33°46'53" W117°51'55"
Elevation is 275 feet MSL.
Magnetic variation is 14° East
View others Airports in California

Operational data

Special qualification required
Current time UTC:
Current local time:
METAR: KSNA 210053Z 20006KT 10SM CLR 23/16 A2989 RMK AO2 SLP119 T02330161
TAF: KSNA 202324Z 2100/2124 21010KT P6SM SKC FM210200 VRB04KT P6SM SCT010 FM210900 VRB04KT P6SM BKN010 FM211400 VRB04KT P6SM FEW010 FM212000 23008KT P6SM SKC
View NOTAMs / SUP AIP / TFR affecting this airport [VIEW]
Communications frequencies: [VIEW]

Runways:

Airport contact information

Address: Orange United States

Satellite view of 4CA5